Bergara, Spain
Current Conditions -  °F | °C
As of 2:30 PM on Wednesday 22 Oct 2014 (Local Time) from LEVT Reporting Station
Scattered Clouds Scattered Clouds  
Wind Chill: 63°   Ceiling: Unl
Heat Index: 63°   Visibility: 6mi
Dew Point: 46°   Wind: 3mph
Humidity: 55%   Direction: 290°WNW
Pressure: 30.42"   Gusts: NA
Location:  43.12°N, 2.42°W
Report Text: LEVT 221230Z 29003KT 240V030 9999 SCT035 17/08 Q1030
Loading
Personal Weather Stations






























Interactive Weather Map New forecast layout! Learn more

10-Day Weather Forecast

Advertisements
Track Severe Weather on mobile